Alfred, Maine
Current Conditions -  °F | °C
As of 3:55 PM on Thursday 23 Oct 2014 (Local Time) from KSFM Reporting Station
Overcast Overcast  
Wind Chill: 10°   Ceiling: 1800
Heat Index: 10°   Visibility: 10mi
Dew Point:   Wind: 20mph
Humidity: 82%   Direction: 20°NNE
Pressure: 29.72"   Gusts: NA
Location:  43.48°N, 70.72°W
Report Text: KSFM 231955Z AUTO 02017KT 10SM SCT010 OVC018 10/07 A2972 RMK AO1 P0004
Loading
Personal Weather Stations






























Interactive Weather Map
Tropical Storm Tracking
New forecast layout! Learn more

10-Day Weather Forecast

Advertisements
Track Severe Weather on mobile